createdAt,value
2023-03-20T00:01:36.378Z,97128.88
2023-03-20T00:04:25.996Z,97129.91
2023-03-20T00:07:14.400Z,97128.50
2023-03-20T00:10:02.788Z,97131.72
2023-03-20T00:12:51.906Z,97130.09
2023-03-20T00:15:43.460Z,97139.50
2023-03-20T00:18:33.241Z,97141.91
2023-03-20T00:21:21.642Z,97138.06
2023-03-20T00:24:10.047Z,97141.31
2023-03-20T00:26:58.406Z,97142.91
2023-03-20T00:29:47.706Z,97139.78
2023-03-20T00:32:36.260Z,97138.16
2023-03-20T00:35:29.429Z,97131.25
2023-03-20T00:38:17.796Z,97142.00
2023-03-20T00:41:19.754Z,97137.56
2023-03-20T00:44:20.285Z,97133.47
2023-03-20T00:47:14.806Z,97132.31
2023-03-20T00:50:03.216Z,97132.66
2023-03-20T00:52:53.132Z,97133.41
2023-03-20T00:55:41.806Z,97141.66
2023-03-20T00:58:30.329Z,97135.50
2023-03-20T01:01:19.112Z,97140.41
2023-03-20T01:04:11.290Z,97136.19
2023-03-20T01:06:59.726Z,97144.50
2023-03-20T01:09:52.705Z,97140.81
2023-03-20T01:12:41.739Z,97137.66
2023-03-20T01:15:33.971Z,97131.44
2023-03-20T01:18:24.559Z,97139.75
2023-03-20T01:21:14.024Z,97143.66
2023-03-20T01:24:02.373Z,97141.03
2023-03-20T01:26:52.785Z,97142.38
2023-03-20T01:29:41.251Z,97140.97
2023-03-20T01:32:30.224Z,97137.97
2023-03-20T01:35:21.114Z,97141.41
2023-03-20T01:38:13.735Z,97141.63
2023-03-20T01:41:05.005Z,97138.66
2023-03-20T01:43:56.040Z,97145.06
2023-03-20T01:46:44.968Z,97135.38
2023-03-20T01:50:18.551Z,97136.97
2023-03-20T01:53:12.209Z,97148.72
2023-03-20T01:56:06.509Z,97141.22
2023-03-20T01:59:05.663Z,97141.22
2023-03-20T02:01:54.543Z,97137.22
2023-03-20T02:04:46.738Z,97146.91
2023-03-20T02:07:38.350Z,97139.13
2023-03-20T02:10:29.427Z,97137.53
2023-03-20T02:13:36.065Z,97143.22
2023-03-20T02:16:26.268Z,97143.47
2023-03-20T02:19:31.133Z,97136.03
2023-03-20T02:22:31.056Z,97143.88
2023-03-20T02:25:55.822Z,97141.50
2023-03-20T02:29:02.176Z,97150.63
2023-03-20T02:32:13.880Z,97143.88
2023-03-20T02:35:39.187Z,97144.13
2023-03-20T02:38:43.951Z,97140.38
2023-03-20T02:41:38.850Z,97143.06
2023-03-20T02:44:34.641Z,97144.94
2023-03-20T02:47:28.497Z,97136.59
2023-03-20T02:50:20.292Z,97141.41
2023-03-20T02:53:19.455Z,97140.31
2023-03-20T02:56:13.840Z,97149.97
2023-03-20T02:59:08.637Z,97148.88
2023-03-20T03:02:02.169Z,97144.59
2023-03-20T03:04:54.167Z,97152.94
2023-03-20T03:07:47.057Z,97152.13
2023-03-20T03:10:37.959Z,97155.88
2023-03-20T03:13:29.349Z,97153.19
2023-03-20T03:16:22.001Z,97159.63
2023-03-20T03:19:14.433Z,97161.56
2023-03-20T03:22:02.956Z,97160.81
2023-03-20T03:24:53.890Z,97157.34
2023-03-20T03:27:43.946Z,97163.59
2023-03-20T03:30:35.780Z,97154.78
2023-03-20T03:33:26.852Z,97155.59
2023-03-20T03:36:22.094Z,97168.41
2023-03-20T03:39:16.140Z,97172.69
2023-03-20T03:42:06.978Z,97173.81
2023-03-20T03:44:59.681Z,97176.06
2023-03-20T03:47:52.631Z,97179.88
2023-03-20T03:50:48.189Z,97179.66
2023-03-20T03:53:39.576Z,97182.63
2023-03-20T03:56:31.186Z,97181.41
2023-03-20T03:59:24.394Z,97184.06
2023-03-20T04:02:13.730Z,97186.97
2023-03-20T04:05:05.122Z,97189.44
2023-03-20T04:07:55.920Z,97189.22
2023-03-20T04:10:44.297Z,97191.81
2023-03-20T04:13:32.765Z,97193.38
2023-03-20T04:16:25.014Z,97198.00
2023-03-20T04:19:13.629Z,97203.66
2023-03-20T04:22:03.922Z,97209.00
2023-03-20T04:24:52.762Z,97204.75
2023-03-20T04:27:41.274Z,97204.22
2023-03-20T04:30:36.837Z,97206.91
2023-03-20T04:33:35.135Z,97204.75
2023-03-20T04:36:41.886Z,97203.16
2023-03-20T04:39:34.444Z,97204.50
2023-03-20T04:42:23.532Z,97206.91
2023-03-20T04:45:17.343Z,97210.59
2023-03-20T04:48:06.379Z,97210.00
2023-03-20T04:50:55.336Z,97207.25
2023-03-20T04:53:50.388Z,97215.81
2023-03-20T04:56:40.623Z,97218.50
2023-03-20T04:59:35.851Z,97219.81
2023-03-20T05:02:24.292Z,97218.00
2023-03-20T05:05:12.673Z,97222.31
2023-03-20T05:08:01.032Z,97219.88
2023-03-20T05:10:55.496Z,97221.16
2023-03-20T05:14:04.749Z,97227.88
2023-03-20T05:16:53.153Z,97221.16
2023-03-20T05:20:01.786Z,97224.88
2023-03-20T05:23:16.448Z,97224.34
2023-03-20T05:26:16.299Z,97224.06
2023-03-20T05:29:24.891Z,97226.41
2023-03-20T05:32:31.835Z,97236.06
2023-03-20T05:35:22.837Z,97231.00
2023-03-20T05:38:15.662Z,97243.06
2023-03-20T05:41:33.196Z,97247.88
2023-03-20T05:44:48.580Z,97244.16
2023-03-20T05:47:57.382Z,97246.88
2023-03-20T05:51:07.700Z,97252.78
2023-03-20T05:54:11.032Z,97254.44
2023-03-20T05:57:18.095Z,97255.47
2023-03-20T06:00:21.914Z,97262.47
2023-03-20T06:03:58.145Z,97264.59
2023-03-20T06:07:05.493Z,97271.81
2023-03-20T06:09:54.566Z,97264.06
2023-03-20T06:12:43.428Z,97274.75
2023-03-20T06:15:33.660Z,97273.41
2023-03-20T06:18:32.469Z,97275.88
2023-03-20T06:21:21.034Z,97273.69
2023-03-20T06:24:09.608Z,97283.34
2023-03-20T06:26:58.056Z,97283.34
2023-03-20T06:29:47.282Z,97279.38
2023-03-20T06:32:42.602Z,97288.72
2023-03-20T06:35:32.944Z,97291.09
2023-03-20T06:38:21.505Z,97291.38
2023-03-20T06:41:10.647Z,97298.88
2023-03-20T06:43:59.939Z,97297.28
2023-03-20T06:46:56.602Z,97300.25
2023-03-20T06:49:46.435Z,97295.44
2023-03-20T06:52:35.713Z,97297.31
2023-03-20T06:55:50.736Z,97292.53
2023-03-20T06:58:39.456Z,97294.63
2023-03-20T07:01:28.309Z,97289.50
2023-03-20T07:04:17.387Z,97292.72
2023-03-20T07:07:12.291Z,97301.84
2023-03-20T07:10:01.652Z,97299.69
2023-03-20T07:12:51.330Z,97293.50
2023-03-20T07:15:43.854Z,97304.19
2023-03-20T07:18:43.579Z,97300.41
2023-03-20T07:21:32.051Z,97302.53
2023-03-20T07:24:22.443Z,97310.56
2023-03-20T07:27:11.388Z,97319.06
2023-03-20T07:29:59.863Z,97319.56
2023-03-20T07:32:48.942Z,97318.28
2023-03-20T07:35:39.610Z,97314.56
2023-03-20T07:38:28.758Z,97329.53
2023-03-20T07:41:28.597Z,97325.47
2023-03-20T07:44:30.026Z,97336.72
2023-03-20T07:47:18.414Z,97345.31
2023-03-20T07:50:08.383Z,97345.31
2023-03-20T07:52:57.124Z,97344.22
2023-03-20T07:55:45.811Z,97343.63
2023-03-20T07:58:35.546Z,97346.84
2023-03-20T08:01:24.630Z,97350.56
2023-03-20T08:04:13.024Z,97353.22
2023-03-20T08:07:01.424Z,97353.75
2023-03-20T08:09:50.020Z,97355.06
2023-03-20T08:12:38.376Z,97355.28
2023-03-20T08:15:28.074Z,97357.97
2023-03-20T08:18:16.451Z,97356.75
2023-03-20T08:21:05.471Z,97350.25
2023-03-20T08:23:53.830Z,97352.06
2023-03-20T08:26:42.469Z,97350.47
2023-03-20T08:29:30.837Z,97353.41
2023-03-20T08:32:20.750Z,97341.00
2023-03-20T08:35:22.238Z,97341.97
2023-03-20T08:38:19.984Z,97341.09
2023-03-20T08:41:08.907Z,97335.09
2023-03-20T08:43:57.304Z,97328.50
2023-03-20T08:46:46.491Z,97331.50
2023-03-20T08:49:36.993Z,97334.69
2023-03-20T08:52:25.765Z,97327.22
2023-03-20T08:55:14.976Z,97331.78
2023-03-20T08:58:03.457Z,97329.72
2023-03-20T09:00:51.821Z,97329.09
2023-03-20T09:03:40.264Z,97332.25
2023-03-20T09:06:30.023Z,97334.53
2023-03-20T09:09:20.220Z,97326.75
2023-03-20T09:12:09.777Z,97330.53
2023-03-20T09:14:58.175Z,97324.59
2023-03-20T09:17:46.677Z,97324.59
2023-03-20T09:20:35.390Z,97322.25
2023-03-20T09:23:25.465Z,97331.75
2023-03-20T09:26:13.793Z,97331.16
2023-03-20T09:29:02.476Z,97334.50
2023-03-20T09:31:50.890Z,97339.97
2023-03-20T09:34:39.329Z,97333.06
2023-03-20T09:37:29.741Z,97346.75
2023-03-20T09:40:25.881Z,97348.28
2023-03-20T09:43:23.903Z,97350.53
2023-03-20T09:46:24.600Z,97351.38
2023-03-20T09:49:20.146Z,97351.03
2023-03-20T09:52:20.978Z,97341.06
2023-03-20T09:55:14.673Z,97337.00
2023-03-20T09:58:13.462Z,97341.69
2023-03-20T10:01:04.517Z,97333.34
2023-03-20T10:03:55.369Z,97339.81
2023-03-20T10:06:43.944Z,97327.81
2023-03-20T10:09:33.654Z,97327.16
2023-03-20T10:12:37.660Z,97318.47
2023-03-20T10:15:39.540Z,97321.25
2023-03-20T10:18:29.537Z,97317.22
2023-03-20T10:21:19.580Z,97312.16
2023-03-20T10:24:15.891Z,97314.03
2023-03-20T10:27:08.379Z,97312.16
2023-03-20T10:30:06.896Z,97309.56
2023-03-20T10:33:03.150Z,97309.84
2023-03-20T10:36:01.862Z,97305.97
2023-03-20T10:38:53.432Z,97311.09
2023-03-20T10:41:44.255Z,97303.19
2023-03-20T10:44:34.955Z,97304.56
2023-03-20T10:47:24.992Z,97303.41
2023-03-20T10:50:18.775Z,97306.56
2023-03-20T10:53:08.005Z,97306.78
2023-03-20T10:55:58.579Z,97297.81
2023-03-20T10:58:48.730Z,97293.56
2023-03-20T11:01:37.125Z,97287.13
2023-03-20T11:04:25.748Z,97296.69
2023-03-20T11:07:20.859Z,97294.47
2023-03-20T11:10:12.369Z,97284.34
2023-03-20T11:13:14.273Z,97281.94
2023-03-20T11:16:21.435Z,97282.25
2023-03-20T11:19:12.369Z,97285.75
2023-03-20T11:22:08.762Z,97286.25
2023-03-20T11:25:01.631Z,97270.78
2023-03-20T11:27:50.070Z,97286.38
2023-03-20T11:30:54.141Z,97281.28
2023-03-20T11:33:53.733Z,97278.75
2023-03-20T11:36:50.807Z,97284.72
2023-03-20T11:39:54.863Z,97282.97
2023-03-20T11:42:53.602Z,97281.75
2023-03-20T11:45:43.536Z,97281.00
2023-03-20T11:48:38.808Z,97281.38
2023-03-20T11:51:27.268Z,97279.50
2023-03-20T11:54:17.637Z,97273.44
2023-03-20T11:57:06.389Z,97275.78
2023-03-20T11:59:57.118Z,97275.31
2023-03-20T12:02:46.244Z,97273.59
2023-03-20T12:05:36.622Z,97272.28
2023-03-20T12:08:27.606Z,97272.00
2023-03-20T12:11:37.651Z,97269.78
2023-03-20T12:14:31.293Z,97270.41
2023-03-20T12:17:31.938Z,97274.00
2023-03-20T12:20:31.815Z,97266.34
2023-03-20T12:23:25.048Z,97263.06
2023-03-20T12:26:16.172Z,97264.25
2023-03-20T12:29:09.298Z,97263.41
2023-03-20T12:32:00.282Z,97262.03
2023-03-20T12:34:52.597Z,97261.22
2023-03-20T12:37:42.347Z,97259.44
2023-03-20T12:40:38.253Z,97258.06
2023-03-20T12:43:28.478Z,97265.47
2023-03-20T12:46:27.298Z,97261.28
2023-03-20T12:49:23.232Z,97259.28
2023-03-20T12:52:17.268Z,97252.56
2023-03-20T12:55:22.698Z,97254.28
2023-03-20T12:58:21.994Z,97249.84
2023-03-20T13:01:14.448Z,97257.81
2023-03-20T13:04:15.957Z,97249.22
2023-03-20T13:07:08.164Z,97253.19
2023-03-20T13:10:10.291Z,97247.28
2023-03-20T13:13:05.601Z,97246.09
2023-03-20T13:16:05.637Z,97245.16
2023-03-20T13:19:00.177Z,97238.16
2023-03-20T13:21:55.494Z,97240.69
2023-03-20T13:24:47.567Z,97236.28
2023-03-20T13:27:42.289Z,97239.19
2023-03-20T13:30:35.351Z,97249.28
2023-03-20T13:33:37.221Z,97249.19
2023-03-20T13:36:31.614Z,97246.41
2023-03-20T13:39:22.832Z,97242.22
2023-03-20T13:42:14.036Z,97239.44
2023-03-20T13:45:07.280Z,97243.03
2023-03-20T13:47:56.097Z,97246.06
2023-03-20T13:50:49.949Z,97231.44
2023-03-20T13:53:47.958Z,97233.97
2023-03-20T13:56:43.409Z,97228.13
2023-03-20T14:00:00.347Z,97225.31
2023-03-20T14:03:18.550Z,97225.13
2023-03-20T14:06:19.036Z,97228.72
2023-03-20T14:09:26.905Z,97227.59
2023-03-20T14:12:15.303Z,97222.09
2023-03-20T14:15:05.296Z,97225.31
2023-03-20T14:17:55.108Z,97219.19
2023-03-20T14:20:44.712Z,97221.44
2023-03-20T14:23:37.435Z,97225.44
2023-03-20T14:26:28.867Z,97213.84
2023-03-20T14:29:34.547Z,97218.44
2023-03-20T14:32:36.592Z,97208.91
2023-03-20T14:35:30.657Z,97205.91
2023-03-20T14:38:25.447Z,97211.88
2023-03-20T14:41:16.952Z,97207.09
2023-03-20T14:44:17.562Z,97204.66
2023-03-20T14:47:12.974Z,97202.63
2023-03-20T14:50:08.381Z,97204.31
2023-03-20T14:53:04.281Z,97204.53
2023-03-20T14:55:59.840Z,97203.06
2023-03-20T14:58:54.498Z,97205.56
2023-03-20T15:01:47.387Z,97195.72
2023-03-20T15:04:38.298Z,97185.72
2023-03-20T15:07:28.507Z,97186.00
2023-03-20T15:10:19.660Z,97185.78
2023-03-20T15:13:08.908Z,97182.44
2023-03-20T15:15:58.435Z,97183.38
2023-03-20T15:18:48.565Z,97179.38
2023-03-20T15:21:41.047Z,97177.91
2023-03-20T15:24:30.564Z,97182.13
2023-03-20T15:27:20.472Z,97181.38
2023-03-20T15:30:12.259Z,97182.66
2023-03-20T15:33:00.979Z,97183.31
2023-03-20T15:35:49.524Z,97175.22
2023-03-20T15:38:38.280Z,97179.44
2023-03-20T15:41:28.204Z,97181.66
2023-03-20T15:44:23.806Z,97179.72
2023-03-20T15:47:17.339Z,97185.47
2023-03-20T15:50:06.748Z,97169.69
2023-03-20T15:52:55.150Z,97167.47
2023-03-20T15:55:48.788Z,97167.94
2023-03-20T15:58:37.801Z,97164.78
2023-03-20T16:01:27.903Z,97166.03
2023-03-20T16:04:18.050Z,97161.97
2023-03-20T16:07:06.428Z,97166.84
2023-03-20T16:09:55.539Z,97164.78
2023-03-20T16:12:48.820Z,97156.25
2023-03-20T16:15:37.381Z,97169.53
2023-03-20T16:18:27.377Z,97165.41
2023-03-20T16:21:20.317Z,97174.03
2023-03-20T16:24:11.421Z,97165.31
2023-03-20T16:26:59.945Z,97163.03
2023-03-20T16:29:52.088Z,97163.59
2023-03-20T16:32:42.085Z,97162.63
2023-03-20T16:35:38.561Z,97163.06
2023-03-20T16:38:29.226Z,97167.38
2023-03-20T16:41:28.648Z,97168.22
2023-03-20T16:44:19.690Z,97170.31
2023-03-20T16:47:18.174Z,97164.16
2023-03-20T16:50:22.153Z,97169.13
2023-03-20T16:53:13.891Z,97162.81
2023-03-20T16:56:04.995Z,97164.56
2023-03-20T16:58:56.503Z,97165.91
2023-03-20T17:01:48.258Z,97174.41
2023-03-20T17:04:38.254Z,97178.84
2023-03-20T17:07:28.396Z,97176.25
2023-03-20T17:10:21.699Z,97181.84
2023-03-20T17:13:10.141Z,97183.66
2023-03-20T17:15:59.302Z,97187.94
2023-03-20T17:18:48.386Z,97190.22
2023-03-20T17:21:36.966Z,97197.44
2023-03-20T17:24:25.417Z,97189.84
2023-03-20T17:27:16.853Z,97189.13
2023-03-20T17:30:06.582Z,97197.22
2023-03-20T17:32:56.364Z,97197.84
2023-03-20T17:35:44.940Z,97188.84
2023-03-20T17:38:33.597Z,97188.03
2023-03-20T17:41:22.798Z,97192.13
2023-03-20T17:44:12.523Z,97188.75
2023-03-20T17:47:02.436Z,97189.66
2023-03-20T17:49:51.946Z,97193.78
2023-03-20T17:52:40.375Z,97192.78
2023-03-20T17:55:28.729Z,97190.00
2023-03-20T17:58:18.380Z,97193.03
2023-03-20T18:01:09.236Z,97192.44
2023-03-20T18:03:57.719Z,97190.25
2023-03-20T18:06:47.811Z,97185.84
2023-03-20T18:09:36.991Z,97186.38
2023-03-20T18:12:25.383Z,97192.84
2023-03-20T18:15:13.810Z,97192.34
2023-03-20T18:18:03.571Z,97200.56
2023-03-20T18:20:54.770Z,97205.44
2023-03-20T18:23:45.973Z,97199.03
2023-03-20T18:26:34.457Z,97205.66
2023-03-20T18:29:23.270Z,97210.22
2023-03-20T18:32:11.692Z,97200.19
2023-03-20T18:35:01.434Z,97201.56
2023-03-20T18:37:49.841Z,97204.25
2023-03-20T18:40:38.621Z,97206.44
2023-03-20T18:43:28.011Z,97210.50
2023-03-20T18:46:17.989Z,97211.41
2023-03-20T18:49:07.248Z,97217.34
2023-03-20T18:51:57.047Z,97212.94
2023-03-20T18:54:45.448Z,97209.03
2023-03-20T18:57:35.179Z,97227.41
2023-03-20T19:00:26.294Z,97223.59
2023-03-20T19:03:14.882Z,97219.06
2023-03-20T19:06:03.248Z,97226.69
2023-03-20T19:08:53.655Z,97223.25
2023-03-20T19:11:42.071Z,97221.59
2023-03-20T19:14:30.545Z,97226.41
2023-03-20T19:17:18.929Z,97216.09
2023-03-20T19:20:08.038Z,97220.69
2023-03-20T19:22:56.397Z,97229.13
2023-03-20T19:25:47.729Z,97230.84
2023-03-20T19:28:41.311Z,97229.50
2023-03-20T19:31:30.240Z,97232.28
2023-03-20T19:35:04.540Z,97229.34
2023-03-20T19:37:29.748Z,97237.91
2023-03-20T19:40:28.722Z,97234.06
2023-03-20T19:43:18.603Z,97235.09
2023-03-20T19:46:10.532Z,97236.81
2023-03-20T19:48:58.921Z,97226.72
2023-03-20T19:51:47.944Z,97241.66
2023-03-20T19:54:36.334Z,97232.63
2023-03-20T19:57:24.686Z,97236.66
2023-03-20T20:03:25.696Z,97244.84
2023-03-20T20:06:15.989Z,97236.84
2023-03-20T20:09:05.262Z,97234.97
2023-03-20T20:11:53.698Z,97235.25
2023-03-20T20:14:44.040Z,97234.22
2023-03-20T20:17:34.387Z,97234.13
2023-03-20T20:20:25.145Z,97239.56
2023-03-20T20:23:16.140Z,97238.00
2023-03-20T20:26:05.014Z,97235.34
2023-03-20T20:28:53.489Z,97238.78
2023-03-20T20:31:41.885Z,97232.09
2023-03-20T20:38:28.246Z,97235.03
2023-03-20T20:40:50.846Z,97236.38
2023-03-20T20:44:11.540Z,97236.41
2023-03-20T20:46:47.629Z,97240.13
2023-03-20T20:49:37.647Z,97236.13
2023-03-20T20:52:26.026Z,97237.44
2023-03-20T20:55:23.004Z,97234.75
2023-03-20T20:58:11.999Z,97235.81
2023-03-20T21:01:01.880Z,97232.88
2023-03-20T21:03:51.597Z,97233.94
2023-03-20T21:07:11.957Z,97235.56
2023-03-20T21:09:51.213Z,97244.38
2023-03-20T21:12:55.941Z,97234.47
2023-03-20T21:15:47.150Z,97240.63
2023-03-20T21:18:35.919Z,97239.38
2023-03-20T21:21:24.304Z,97243.97
2023-03-20T21:24:30.944Z,97251.50
2023-03-20T21:27:21.626Z,97240.25
2023-03-20T21:30:11.193Z,97240.00
2023-03-20T21:32:59.807Z,97244.00
2023-03-20T21:35:48.682Z,97243.75
2023-03-20T21:39:05.835Z,97239.22
2023-03-20T21:41:46.975Z,97240.81
2023-03-20T21:45:20.758Z,97239.19
2023-03-20T21:48:25.196Z,97240.00
2023-03-20T21:51:31.653Z,97233.03
2023-03-20T21:54:56.403Z,97238.13
2023-03-20T21:57:55.161Z,97243.19
2023-03-20T22:04:00.616Z,97241.34
2023-03-20T22:07:26.443Z,97242.13
2023-03-20T22:10:26.566Z,97239.22
2023-03-20T22:17:36.585Z,97240.78
2023-03-20T22:20:32.708Z,97245.53
2023-03-20T22:23:40.418Z,97234.38
2023-03-20T22:27:01.684Z,97242.38
2023-03-20T22:29:58.459Z,97241.28
2023-03-20T22:32:56.455Z,97240.75
2023-03-20T22:39:16.028Z,97233.25
2023-03-20T22:45:01.036Z,97247.88
2023-03-20T22:47:51.420Z,97245.94
2023-03-20T22:50:40.096Z,97248.56
2023-03-20T22:53:28.553Z,97245.75
2023-03-20T22:56:16.948Z,97241.66
2023-03-20T22:59:06.755Z,97240.91
2023-03-20T23:01:56.531Z,97237.56
2023-03-20T23:05:03.688Z,97238.13
2023-03-20T23:08:12.953Z,97229.63
2023-03-20T23:11:01.299Z,97231.91
2023-03-20T23:13:49.770Z,97225.44
2023-03-20T23:16:38.125Z,97232.53
2023-03-20T23:19:28.096Z,97232.78
2023-03-20T23:22:18.221Z,97226.78
2023-03-20T23:25:18.297Z,97241.34
2023-03-20T23:28:12.144Z,97236.47
2023-03-20T23:31:10.587Z,97231.16
2023-03-20T23:33:59.351Z,97229.00
2023-03-20T23:36:49.233Z,97223.28
2023-03-20T23:39:37.634Z,97221.13
2023-03-20T23:42:30.643Z,97225.41
2023-03-20T23:45:21.110Z,97222.28
2023-03-20T23:48:09.804Z,97221.16
2023-03-20T23:50:58.290Z,97208.38
2023-03-20T23:53:47.965Z,97214.03
2023-03-20T23:56:39.573Z,97215.91
2023-03-20T23:59:27.882Z,97215.28
